Skip Navigation Links
NOAA logo - Click to go to the NOAA homepage
NOAA's National Weather Service
Alaska Aviation Weather Unit
  NWS logo - Click to go to the NWS homepage
Left Navbar Graphic     08 AKDT = 16 GMT

   
NOAA is celebrating 200 years of science, service, and stewardship. Visit the NOAA 200th celebration Web site to learn more.
USA.gov is the U.S. Government's official Web portal to all Federal, state and local government Web resources and services.
Facebook
NWS on Facebook

Important Change Regarding the AAWU Web Presence

 

Over the last several months, the AAWU has been working to navigate its webpages to a nationally supported server. Security, as well as other needs, have necessitated the change.  In the process, we have made an effort to enhance the functionality of our website, as well as some of our products. As of June 20, 2017, aawu.arh.noaa.gov will be discontinued. The new AAWU web address is weather.gov/aawu. It is now live and will run in-parallel with the old site until it is discontinued. Please send any feedback or questions regarding the new webpages to nws.ar.aawu.webauthors@noaa.gov.  Thank you for your patience during this time of transition.
AAWU Home :: Display TAF Add Bookmark
TAF CYDB 231144Z 2312/2324 VRB03KT P6SM FEW070
    FM232100 10005KT P6SM BKN060
    RMK FCST BASED ON AUTO OBS. NXT FCST BY 231800Z=

METAR CYDB 231000Z AUTO 00000KT 9SM CLR M03/M06 A2981 RMK SLP125= METAR CYDB 231100Z AUTO VRB02KT 9SM FEW080 SCT100 M03/M06 A2982 RMK SLP128= METAR CYDB 231200Z AUTO 31003KT 9SM FEW110 M04/M07 A2982 RMK SLP130= METAR CYDB 231300Z AUTO 28002KT 9SM SCT085 M03/M07 A2982 RMK SLP128= METAR CYDB 231400Z 00000KT 30SM FEW075 BKN090 M00/M04 A2983 RMK AC2AC4 CLIMAT 16.0/-4.5/0.0 SLP130= METAR CYDB 231500Z 01002KT 30SM SCT075 BKN090 02/M04 A2984 RMK AC3AC4 SLP133= METAR CYDB 231600Z 00000KT 30SM SCT080 BKN100 04/M03 A2983 RMK AC4AC3 DIST SH S SLP131=
 Alaska TAF Map

NOAA's National Weather Service
Alaska Aviation Weather Unit
6930 Sand Lake Road
Anchorage, AK 99502-1845
Disclaimer
Credits
Glossary
Privacy Policy
About Us
Career Opportunities
Contact AAWU Internet Services Site last modified: April, 17th 2012